createdAt,value
2022-12-14T00:04:55.836Z,40.22
2022-12-14T00:09:57.367Z,41.75
2022-12-14T00:14:58.911Z,32.58
2022-12-14T00:20:00.452Z,38.60
2022-12-14T00:25:02.628Z,34.50
2022-12-14T00:30:04.572Z,32.72
2022-12-14T00:35:07.654Z,30.52
2022-12-14T00:40:10.224Z,29.73
2022-12-14T00:45:14.174Z,30.30
2022-12-14T00:50:15.756Z,30.35
2022-12-14T00:55:17.290Z,28.10
2022-12-14T01:00:18.922Z,33.17
2022-12-14T01:05:20.536Z,27.83
2022-12-14T01:10:22.475Z,28.85
2022-12-14T01:15:24.139Z,31.23
2022-12-14T01:20:25.668Z,28.98
2022-12-14T01:25:27.239Z,28.50
2022-12-14T01:30:28.982Z,33.15
2022-12-14T01:35:30.524Z,29.00
2022-12-14T01:40:32.119Z,30.90
2022-12-14T01:45:33.650Z,28.30
2022-12-14T01:50:40.120Z,33.47
2022-12-14T01:55:50.501Z,32.58
2022-12-14T02:00:58.196Z,30.58
2022-12-14T02:06:14.393Z,30.65
2022-12-14T02:11:35.940Z,32.63
2022-12-14T02:16:38.513Z,36.15
2022-12-14T02:22:09.986Z,35.03
2022-12-14T02:27:11.533Z,34.00
2022-12-14T02:32:34.584Z,31.30
2022-12-14T02:37:57.193Z,30.50
2022-12-14T02:43:04.966Z,37.03
2022-12-14T02:48:37.240Z,28.75
2022-12-14T02:54:02.473Z,30.88
2022-12-14T02:59:07.874Z,38.67
2022-12-14T03:04:09.430Z,32.53
2022-12-14T03:09:17.522Z,32.97
2022-12-14T03:14:28.937Z,32.35
2022-12-14T03:19:36.361Z,31.90
2022-12-14T03:24:43.040Z,32.03
2022-12-14T03:29:52.751Z,35.05
2022-12-14T03:35:33.006Z,31.92
2022-12-14T03:40:46.182Z,34.65
2022-12-14T03:46:00.656Z,69.03
2022-12-14T03:51:13.802Z,37.70
2022-12-14T03:56:28.869Z,31.10
2022-12-14T04:02:02.471Z,28.48
2022-12-14T04:07:14.685Z,30.55
2022-12-14T04:12:48.021Z,30.67
2022-12-14T04:18:14.627Z,30.67
2022-12-14T04:23:47.636Z,28.30
2022-12-14T04:29:18.615Z,25.27
2022-12-14T04:34:26.196Z,34.38
2022-12-14T04:39:35.996Z,33.00
2022-12-14T04:44:42.590Z,30.70
2022-12-14T04:49:50.272Z,36.60
2022-12-14T04:55:10.107Z,36.05
2022-12-14T05:00:12.982Z,33.15
2022-12-14T05:05:25.858Z,32.17
2022-12-14T05:10:46.232Z,36.50
2022-12-14T05:15:57.183Z,32.00
2022-12-14T05:20:58.740Z,31.40
2022-12-14T05:26:00.271Z,29.75
2022-12-14T05:31:03.991Z,33.83
2022-12-14T05:36:05.928Z,32.78
2022-12-14T05:41:07.522Z,34.88
2022-12-14T05:46:11.630Z,34.17
2022-12-14T05:51:13.764Z,38.90
2022-12-14T05:56:15.567Z,36.42
2022-12-14T06:01:19.610Z,36.15
2022-12-14T06:06:21.570Z,40.38
2022-12-14T06:11:24.354Z,42.28
2022-12-14T06:16:26.678Z,37.75
2022-12-14T06:21:33.352Z,40.30
2022-12-14T06:32:02.059Z,45.13
2022-12-14T06:37:03.698Z,42.83
2022-12-14T06:42:06.267Z,37.88
2022-12-14T06:47:07.799Z,35.92
2022-12-14T06:52:10.344Z,44.30
2022-12-14T06:57:11.993Z,42.78
2022-12-14T07:02:13.718Z,44.17
2022-12-14T07:07:15.426Z,44.03
2022-12-14T07:12:16.959Z,47.08
2022-12-14T07:17:18.500Z,43.38
2022-12-14T07:22:20.437Z,41.55
2022-12-14T07:27:24.108Z,52.08
2022-12-14T07:32:26.056Z,45.40
2022-12-14T07:37:27.634Z,45.38
2022-12-14T07:42:29.251Z,40.60
2022-12-14T07:47:34.698Z,43.95
2022-12-14T07:52:37.663Z,41.00
2022-12-14T07:57:39.372Z,43.42
2022-12-14T08:02:41.692Z,43.63
2022-12-14T08:07:43.699Z,43.20
2022-12-14T08:12:45.459Z,42.85
2022-12-14T08:17:47.051Z,42.42
2022-12-14T08:22:51.292Z,41.05
2022-12-14T08:27:53.166Z,39.67
2022-12-14T08:32:55.833Z,42.65
2022-12-14T08:37:57.455Z,44.22
2022-12-14T08:42:59.326Z,49.00
2022-12-14T08:48:01.614Z,48.55
2022-12-14T08:53:03.215Z,42.63
2022-12-14T08:58:04.773Z,47.78
2022-12-14T09:03:06.767Z,43.92
2022-12-14T09:08:09.165Z,40.47
2022-12-14T09:13:15.241Z,54.05
2022-12-14T09:18:16.796Z,51.40
2022-12-14T09:23:18.356Z,52.88
2022-12-14T09:28:19.969Z,54.10
2022-12-14T09:33:21.537Z,59.20
2022-12-14T09:38:27.236Z,56.13
2022-12-14T09:43:43.601Z,58.55
2022-12-14T09:48:48.671Z,51.17
2022-12-14T09:54:02.367Z,54.88
2022-12-14T09:59:05.546Z,49.30
2022-12-14T10:04:32.034Z,48.53
2022-12-14T10:10:00.518Z,57.83
2022-12-14T10:15:02.144Z,53.67
2022-12-14T10:20:18.245Z,52.22
2022-12-14T10:25:25.023Z,55.78
2022-12-14T10:30:26.724Z,52.90
2022-12-14T10:35:43.920Z,47.42
2022-12-14T10:40:50.593Z,53.33
2022-12-14T10:45:54.939Z,53.10
2022-12-14T10:51:08.037Z,49.95
2022-12-14T10:56:20.977Z,52.85
2022-12-14T11:01:22.724Z,50.47
2022-12-14T11:06:25.161Z,59.08
2022-12-14T11:11:29.175Z,49.33
2022-12-14T11:16:37.361Z,50.72
2022-12-14T11:21:39.388Z,50.45
2022-12-14T11:26:43.467Z,41.47
2022-12-14T11:31:48.024Z,47.72
2022-12-14T11:36:50.149Z,49.75
2022-12-14T11:41:57.910Z,48.10
2022-12-14T11:47:00.875Z,47.70
2022-12-14T11:52:05.287Z,51.00
2022-12-14T11:57:12.531Z,59.63
2022-12-14T12:02:18.936Z,50.38
2022-12-14T12:07:28.128Z,50.85
2022-12-14T12:12:33.647Z,52.42
2022-12-14T12:17:42.181Z,55.50
2022-12-14T12:22:48.073Z,40.88
2022-12-14T12:28:03.326Z,58.38
2022-12-14T12:33:14.042Z,57.53
2022-12-14T12:38:36.656Z,56.85
2022-12-14T12:43:49.881Z,53.67
2022-12-14T12:49:12.899Z,57.08
2022-12-14T12:54:23.971Z,59.03
2022-12-14T12:59:36.212Z,59.25
2022-12-14T13:04:40.967Z,60.72
2022-12-14T13:09:58.256Z,61.60
2022-12-14T13:20:19.798Z,57.72
2022-12-14T13:25:28.280Z,56.00
2022-12-14T13:30:57.297Z,61.42
2022-12-14T13:36:23.114Z,59.92
2022-12-14T13:41:34.868Z,59.17
2022-12-14T13:46:37.208Z,57.22
2022-12-14T13:51:40.527Z,60.00
2022-12-14T13:56:42.186Z,56.67
2022-12-14T14:01:46.688Z,58.55
2022-12-14T14:06:53.067Z,62.03
2022-12-14T14:12:00.475Z,53.00
2022-12-14T14:17:24.720Z,58.03
2022-12-14T14:22:29.615Z,51.13
2022-12-14T14:27:50.263Z,55.08
2022-12-14T14:33:19.848Z,48.53
2022-12-14T14:38:33.279Z,55.58
2022-12-14T14:43:46.764Z,53.97
2022-12-14T14:49:01.247Z,50.35
2022-12-14T14:54:53.989Z,50.70
2022-12-14T14:59:51.264Z,52.55
2022-12-14T15:04:57.025Z,55.42
2022-12-14T15:10:07.762Z,49.65
2022-12-14T15:15:20.231Z,54.08
2022-12-14T15:20:28.876Z,48.60
2022-12-14T15:25:31.679Z,44.40
2022-12-14T15:30:34.582Z,47.00
2022-12-14T15:35:39.232Z,47.35
2022-12-14T15:40:41.341Z,44.05
2022-12-14T15:45:45.960Z,44.38
2022-12-14T15:50:51.833Z,45.58
2022-12-14T15:56:00.317Z,47.28
2022-12-14T16:01:23.127Z,46.35
2022-12-14T16:06:27.495Z,46.10
2022-12-14T16:11:54.350Z,49.35
2022-12-14T16:16:56.436Z,47.25
2022-12-14T16:22:28.661Z,45.22
2022-12-14T16:27:30.967Z,42.60
2022-12-14T16:32:32.804Z,47.67
2022-12-14T16:37:34.803Z,44.00
2022-12-14T16:42:36.420Z,47.25
2022-12-14T16:48:23.093Z,52.20
2022-12-14T16:53:29.741Z,47.95
2022-12-14T16:58:32.519Z,48.85
2022-12-14T17:03:37.125Z,42.92
2022-12-14T17:08:39.112Z,49.55
2022-12-14T17:13:40.688Z,44.58
2022-12-14T17:18:42.527Z,48.38
2022-12-14T17:23:45.409Z,47.45
2022-12-14T17:28:46.990Z,45.50
2022-12-14T17:33:52.038Z,44.67
2022-12-14T17:38:53.685Z,52.67
2022-12-14T17:43:57.183Z,46.53
2022-12-14T17:49:04.521Z,43.10
2022-12-14T17:54:19.210Z,48.67
2022-12-14T17:59:20.798Z,48.35
2022-12-14T18:04:22.393Z,44.10
2022-12-14T18:09:23.962Z,47.67
2022-12-14T18:14:25.559Z,42.75
2022-12-14T18:19:27.118Z,45.58
2022-12-14T18:24:28.921Z,48.72
2022-12-14T18:29:30.515Z,49.78
2022-12-14T18:34:32.077Z,50.63
2022-12-14T18:39:33.678Z,49.47
2022-12-14T18:44:35.276Z,54.50
2022-12-14T18:49:37.159Z,52.97
2022-12-14T18:54:38.772Z,49.67
2022-12-14T18:59:42.607Z,51.78
2022-12-14T19:04:49.074Z,50.50
2022-12-14T19:09:50.771Z,55.38
2022-12-14T19:14:52.432Z,50.22
2022-12-14T19:19:54.048Z,49.78
2022-12-14T19:24:55.631Z,43.95
2022-12-14T19:29:57.263Z,49.92
2022-12-14T19:34:58.872Z,44.60
2022-12-14T19:40:02.447Z,43.50
2022-12-14T19:45:04.393Z,40.67
2022-12-14T19:50:06.967Z,39.95
2022-12-14T19:55:09.775Z,38.75
2022-12-14T20:00:11.715Z,41.10
2022-12-14T20:05:13.360Z,39.47
2022-12-14T20:10:14.941Z,39.38
2022-12-14T20:15:16.604Z,45.83
2022-12-14T20:20:19.187Z,51.78
2022-12-14T20:25:20.816Z,45.25
2022-12-14T20:30:22.385Z,40.38
2022-12-14T20:35:24.018Z,39.13
2022-12-14T20:40:25.966Z,39.22
2022-12-14T20:45:27.523Z,41.05
2022-12-14T20:50:29.088Z,44.25
2022-12-14T20:55:33.391Z,39.67
2022-12-14T21:00:37.284Z,42.80
2022-12-14T21:05:42.223Z,46.15
2022-12-14T21:10:46.157Z,44.22
2022-12-14T21:15:47.766Z,44.47
2022-12-14T21:20:49.371Z,41.38
2022-12-14T21:25:50.968Z,43.47
2022-12-14T21:30:52.603Z,44.42
2022-12-14T21:35:54.232Z,39.05
2022-12-14T21:41:14.441Z,43.95
2022-12-14T21:46:16.123Z,43.38
2022-12-14T21:51:19.117Z,41.67
2022-12-14T21:56:39.000Z,42.30
2022-12-14T22:01:40.862Z,42.22
2022-12-14T22:06:44.903Z,37.10
2022-12-14T22:11:47.034Z,35.97
2022-12-14T22:16:51.315Z,37.88
2022-12-14T22:21:53.127Z,41.70
2022-12-14T22:26:55.762Z,42.90
2022-12-14T22:31:57.710Z,42.25
2022-12-14T22:36:59.338Z,44.75
2022-12-14T22:42:01.014Z,46.35
2022-12-14T22:47:04.716Z,49.50
2022-12-14T22:52:06.270Z,50.17
2022-12-14T22:57:17.900Z,44.70
2022-12-14T23:02:19.708Z,45.90
2022-12-14T23:07:21.695Z,45.30
2022-12-14T23:12:41.830Z,49.67
2022-12-14T23:18:01.956Z,48.50
2022-12-14T23:23:26.272Z,52.85
2022-12-14T23:28:50.412Z,44.88
2022-12-14T23:34:10.636Z,50.20
2022-12-14T23:39:30.669Z,49.75
2022-12-14T23:44:50.792Z,46.13
2022-12-14T23:50:10.956Z,53.13
2022-12-14T23:55:31.231Z,52.47
